Time;durP1;ratioP1;P1;durP2;ratioP2;P2;SDS_P1;SDS_P2;PMS_P1;PMS_P2;Temp;Humidity;BMP_temperature;BMP_pressure;BME280_temperature;BME280_humidity;BME280_pressure;Samples;Min_cycle;Max_cycle;Signal;HPM_P1;HPM_P2
2022/04/10 00:00:52;;;;;;;;;;;2.10;99.90;;;1.36;100.00;97335.88;5064099;28;20022;-48
2022/04/10 00:03:19;;;;;;;;;;;2.20;99.90;;;1.47;100.00;97340.19;5082584;22;20668;-60
2022/04/10 00:05:45;;;;;;;;;;;2.30;99.90;;;1.47;100.00;97339.31;5068373;28;19964;-60
2022/04/10 00:08:10;;;;;;;;;;;2.40;99.90;;;1.45;100.00;97339.31;5073789;28;20012;-60
2022/04/10 00:10:36;;;;;;;;;;;2.30;99.90;;;1.51;100.00;97335.88;5070341;28;19932;-59
2022/04/10 00:13:02;;;;;;;;;;;2.30;99.90;;;1.45;100.00;97334.13;5063389;28;20019;-60
2022/04/10 00:15:27;;;;;;;;;;;2.30;99.90;;;1.46;100.00;97332.41;5053668;28;20353;-59
2022/04/10 00:17:53;;;;;;;;;;;2.30;99.90;;;1.48;100.00;97335.84;5049349;28;19993;-60
2022/04/10 00:20:19;;;;;;;;;;;2.40;99.90;;;1.46;100.00;97335.00;5051604;28;20006;-59
2022/04/10 00:22:47;;;;;;;;;;;2.30;99.90;;;1.42;100.00;97326.34;5052393;28;20323;-60
2022/04/10 00:25:14;;;;;;;;;;;2.30;99.90;;;1.41;100.00;97339.34;5052117;28;19975;-60
2022/04/10 00:27:40;;;;;;;;;;;2.30;99.90;;;1.51;100.00;97339.31;5054017;28;19924;-60
2022/04/10 00:30:07;;;;;;;;;;;2.30;99.90;;;1.47;100.00;97336.72;5054600;28;20050;-60
2022/04/10 00:32:33;;;;;;;;;;;2.30;99.90;;;1.42;100.00;97335.84;5045382;28;19921;-60
2022/04/10 00:34:58;;;;;;;;;;;2.30;99.90;;;1.39;100.00;97333.28;5052710;28;19924;-60
2022/04/10 00:37:24;;;;;;;;;;;2.30;99.90;;;1.38;100.00;97334.13;5056729;28;19917;-60
2022/04/10 00:39:50;;;;;;;;;;;2.20;99.90;;;1.38;100.00;97334.13;5057441;28;19924;-60
2022/04/10 00:42:16;;;;;;;;;;;2.20;99.90;;;1.31;100.00;97336.75;5054784;28;19920;-60
2022/04/10 00:44:41;;;;;;;;;;;2.20;99.90;;;1.22;100.00;97335.88;5056324;28;19943;-59
2022/04/10 00:47:10;;;;;;;;;;;2.20;99.90;;;1.23;100.00;97335.88;5059086;28;20010;-59
2022/04/10 00:49:38;;;;;;;;;;;2.10;99.90;;;1.16;100.00;97339.34;5053863;28;19974;-60
2022/04/10 00:52:07;;;;;;;;;;;2.10;99.90;;;1.15;100.00;97348.03;5049346;28;20268;-60
2022/04/10 00:54:33;;;;;;;;;;;2.10;99.90;;;1.10;100.00;97341.97;5052278;28;20291;-60
2022/04/10 00:57:00;;;;;;;;;;;2.10;99.90;;;1.09;100.00;97346.28;5052016;28;19928;-59
2022/04/10 00:59:27;;;;;;;;;;;2.10;99.90;;;1.17;100.00;97345.41;5053564;28;19924;-60
2022/04/10 01:01:53;;;;;;;;;;;2.00;99.90;;;1.17;100.00;97343.69;5053121;28;19921;-60
2022/04/10 01:04:18;;;;;;;;;;;2.10;99.90;;;1.18;100.00;97345.41;5054377;28;19931;-60
2022/04/10 01:06:47;;;;;;;;;;;2.10;99.90;;;1.29;100.00;97341.09;5052898;28;20337;-59
2022/04/10 01:09:13;;;;;;;;;;;2.20;99.90;;;1.33;100.00;97339.34;5056024;28;19928;-59
2022/04/10 01:11:39;;;;;;;;;;;2.20;99.90;;;1.36;100.00;97348.88;5054688;28;19970;-59
2022/04/10 01:14:05;;;;;;;;;;;2.30;99.90;;;1.41;100.00;97352.34;5050035;28;20359;-59
2022/04/10 01:16:31;;;;;;;;;;;2.30;99.90;;;1.46;100.00;97342.81;5052342;28;20160;-60
2022/04/10 01:18:57;;;;;;;;;;;2.40;99.90;;;1.54;100.00;97351.44;5055272;28;20364;-60
2022/04/10 01:21:27;;;;;;;;;;;2.40;99.90;;;1.42;100.00;97325.47;5055379;28;20027;-60
2022/04/10 01:23:54;;;;;;;;;;;2.50;99.90;;;1.68;100.00;97360.06;5053454;28;19921;-60
2022/04/10 01:26:21;;;;;;;;;;;2.50;99.90;;;1.84;100.00;97354.84;5053230;28;19916;-60
2022/04/10 01:29:03;;;;;;;;;;;2.70;99.90;;;1.96;100.00;97359.16;5050373;28;20004;-60
2022/04/10 01:31:30;;;;;;;;;;;2.80;99.90;;;1.99;100.00;97370.41;5052071;28;20617;-60
2022/04/10 01:33:58;;;;;;;;;;;2.90;99.90;;;2.01;100.00;97368.66;5053414;28;19951;-60
2022/04/10 01:36:25;;;;;;;;;;;2.90;99.90;;;2.05;100.00;97369.50;5052459;28;20019;-60
2022/04/10 01:38:54;;;;;;;;;;;2.90;99.90;;;2.05;100.00;97365.16;5052426;28;19917;-59
2022/04/10 01:41:20;;;;;;;;;;;2.90;99.90;;;2.01;100.00;97363.47;5052782;28;19938;-60
2022/04/10 01:43:46;;;;;;;;;;;2.90;99.90;;;2.03;100.00;97376.47;5052505;28;20408;-61
2022/04/10 01:46:12;;;;;;;;;;;2.90;99.90;;;2.00;100.00;97377.31;5054708;28;19920;-61
2022/04/10 01:48:38;;;;;;;;;;;2.90;99.90;;;2.01;100.00;97381.66;5053635;28;19951;-60
2022/04/10 01:51:04;;;;;;;;;;;2.90;99.90;;;2.00;100.00;97377.31;5054841;28;20423;-61
2022/04/10 01:53:30;;;;;;;;;;;2.90;99.90;;;1.96;100.00;97383.41;5051214;28;20376;-60
2022/04/10 01:55:56;;;;;;;;;;;2.80;99.90;;;1.88;100.00;97379.94;5048175;28;19931;-60
2022/04/10 01:58:21;;;;;;;;;;;2.70;99.90;;;1.79;100.00;97374.78;5054231;28;20376;-60
2022/04/10 02:00:47;;;;;;;;;;;2.70;99.90;;;1.62;100.00;97380.88;5050757;28;20303;-60
2022/04/10 02:03:12;;;;;;;;;;;2.60;99.90;;;1.41;100.00;97367.94;5052122;28;20014;-60
2022/04/10 02:05:38;;;;;;;;;;;2.40;99.90;;;1.52;100.00;97374.81;5048646;28;19917;-60
2022/04/10 02:08:04;;;;;;;;;;;2.40;99.90;;;1.46;100.00;97377.44;5048673;28;20040;-61
2022/04/10 02:10:29;;;;;;;;;;;2.30;99.90;;;1.39;100.00;97374.88;5051452;28;20368;-60
2022/04/10 02:12:55;;;;;;;;;;;2.30;99.90;;;1.37;100.00;97379.19;5054407;28;20027;-60
2022/04/10 02:15:21;;;;;;;;;;;2.30;99.90;;;1.26;100.00;97368.81;5051714;28;19920;-60
2022/04/10 02:17:46;;;;;;;;;;;2.20;99.90;;;1.31;100.00;97377.44;5052839;28;20380;-61
2022/04/10 02:20:12;;;;;;;;;;;2.20;99.90;;;1.39;100.00;97373.13;5053282;28;19928;-60
2022/04/10 02:22:37;;;;;;;;;;;2.20;99.90;;;1.32;100.00;97374.84;5053850;28;19917;-60
2022/04/10 02:25:03;;;;;;;;;;;2.20;99.90;;;1.30;100.00;97376.59;5047686;28;19936;-60
2022/04/10 02:27:29;;;;;;;;;;;2.20;99.90;;;1.22;100.00;97378.34;5053787;28;20007;-60
2022/04/10 02:29:55;;;;;;;;;;;2.10;99.90;;;1.18;100.00;97374.00;5054553;28;19920;-60
2022/04/10 02:32:20;;;;;;;;;;;2.10;99.90;;;1.10;100.00;97371.41;5054615;28;19989;-59
2022/04/10 02:34:46;;;;;;;;;;;2.00;99.90;;;0.97;100.00;97374.00;5053104;28;19920;-60
2022/04/10 02:37:11;;;;;;;;;;;1.90;99.90;;;0.93;100.00;97373.13;5054258;28;19948;-60
2022/04/10 02:39:37;;;;;;;;;;;1.90;99.90;;;0.89;100.00;97374.84;5053637;28;19920;-60
2022/04/10 02:42:03;;;;;;;;;;;1.80;99.90;;;0.91;100.00;97377.44;5056164;28;20625;-60
2022/04/10 02:44:28;;;;;;;;;;;1.80;99.90;;;0.87;100.00;97383.50;5051556;28;19955;-60
2022/04/10 02:46:54;;;;;;;;;;;1.80;99.90;;;0.82;100.00;97380.91;5053096;28;19947;-60
2022/04/10 02:49:20;;;;;;;;;;;1.70;99.90;;;0.77;100.00;97390.41;5055100;28;20315;-61
2022/04/10 02:51:49;;;;;;;;;;;1.70;99.90;;;0.80;100.00;97381.78;5053812;28;19956;-60
2022/04/10 02:54:17;;;;;;;;;;;1.70;99.90;;;0.73;100.00;97380.88;5055924;28;20413;-60
2022/04/10 02:56:43;;;;;;;;;;;1.60;99.90;;;0.69;100.00;97393.00;5051753;28;19971;-60
2022/04/10 02:59:09;;;;;;;;;;;1.60;99.90;;;0.49;100.00;97364.41;5052313;28;20015;-60
2022/04/10 03:01:35;;;;;;;;;;;1.60;99.90;;;0.64;100.00;97381.72;5051860;28;20367;-60
2022/04/10 03:04:00;;;;;;;;;;;1.60;99.90;;;0.57;100.00;97388.66;5052805;28;20020;-61
2022/04/10 03:06:26;;;;;;;;;;;1.60;99.90;;;0.54;100.00;97396.44;5051087;28;20924;-60
2022/04/10 03:08:52;;;;;;;;;;;1.50;99.90;;;0.48;100.00;97388.63;5054340;28;19920;-61
2022/04/10 03:11:18;;;;;;;;;;;1.50;99.90;;;0.53;100.00;97392.09;5048938;28;20373;-61
2022/04/10 03:13:44;;;;;;;;;;;1.40;99.90;;;0.55;100.00;97389.50;5054327;28;22450;-61
2022/04/10 03:16:10;;;;;;;;;;;1.40;99.90;;;0.43;100.00;97395.53;5053874;28;19916;-61
2022/04/10 03:18:36;;;;;;;;;;;1.40;99.90;;;0.35;100.00;97394.63;5052416;28;20335;-61
2022/04/10 03:21:03;;;;;;;;;;;1.30;99.90;;;0.26;100.00;97392.88;5051620;28;20051;-61
2022/04/10 03:23:28;;;;;;;;;;;1.20;99.90;;;0.21;100.00;97385.94;5048263;28;19920;-61
2022/04/10 03:25:54;;;;;;;;;;;1.20;99.90;;;0.24;100.00;97393.75;5054797;28;19959;-61
2022/04/10 03:28:20;;;;;;;;;;;1.20;99.90;;;0.15;100.00;97399.75;5054446;28;20056;-61
2022/04/10 03:30:45;;;;;;;;;;;1.20;99.90;;;0.21;100.00;97399.78;5058471;28;20296;-61
2022/04/10 03:33:11;;;;;;;;;;;1.20;99.90;;;0.23;100.00;97395.44;5056304;28;20376;-61
2022/04/10 03:35:36;;;;;;;;;;;1.20;99.90;;;0.16;100.00;97402.34;5055897;28;19917;-61
2022/04/10 03:38:02;;;;;;;;;;;1.20;99.90;;;0.17;100.00;97406.66;5057815;28;19925;-61
2022/04/10 03:40:28;;;;;;;;;;;1.20;99.90;;;0.25;100.00;97411.03;5054364;28;19931;-61
2022/04/10 03:42:53;;;;;;;;;;;1.20;99.90;;;0.33;100.00;97407.59;5055908;28;19916;-61
2022/04/10 03:45:19;;;;;;;;;;;1.20;99.90;;;0.30;100.00;97401.53;5057059;28;19967;-61
2022/04/10 03:47:46;;;;;;;;;;;1.20;99.90;;;0.29;100.00;97405.00;5057254;28;20076;-60
2022/04/10 03:50:12;;;;;;;;;;;1.20;99.90;;;0.16;100.00;97393.69;5054795;28;19924;-61
2022/04/10 03:52:38;;;;;;;;;;;1.20;99.90;;;0.21;100.00;97412.75;5054814;28;19938;-61
2022/04/10 03:55:04;;;;;;;;;;;1.20;99.90;;;0.18;100.00;97423.97;5055193;28;19927;-61
2022/04/10 03:57:30;;;;;;;;;;;1.10;99.90;;;0.16;100.00;97427.41;5053594;28;19970;-61
2022/04/10 03:59:55;;;;;;;;;;;1.10;99.90;;;0.14;100.00;97426.53;5056851;28;19961;-61
2022/04/10 04:02:22;;;;;;;;;;;1.10;99.90;;;0.26;100.00;97429.19;5056074;28;19924;-61
2022/04/10 04:04:51;;;;;;;;;;;1.20;99.90;;;0.33;100.00;97438.72;5055889;28;20369;-61
2022/04/10 04:07:17;;;;;;;;;;;1.30;99.90;;;0.39;100.00;97430.09;5054787;28;19973;-61
2022/04/10 04:09:43;;;;;;;;;;;1.30;99.90;;;0.44;100.00;97437.91;5070381;28;19936;-61
2022/04/10 04:12:09;;;;;;;;;;;1.40;99.90;;;0.46;100.00;97441.38;5057924;28;19916;-60
2022/04/10 04:14:35;;;;;;;;;;;1.40;99.90;;;0.60;100.00;97444.88;5058723;28;19925;-60
2022/04/10 04:17:01;;;;;;;;;;;1.50;99.90;;;0.63;100.00;97446.59;5056439;28;20375;-61
2022/04/10 04:19:27;;;;;;;;;;;1.60;99.90;;;0.78;100.00;97451.00;5055007;28;19932;-60
2022/04/10 04:21:52;;;;;;;;;;;1.70;99.90;;;0.74;100.00;97455.31;5053798;28;20019;-60
2022/04/10 04:24:18;;;;;;;;;;;1.70;99.90;;;0.77;100.00;97457.91;5054254;28;20069;-61
2022/04/10 04:26:43;;;;;;;;;;;1.60;99.90;;;0.87;100.00;97457.06;5053421;28;19973;-60
2022/04/10 04:29:09;;;;;;;;;;;1.70;99.90;;;0.89;100.00;97465.72;5053510;28;20433;-61
2022/04/10 04:31:35;;;;;;;;;;;1.70;99.90;;;0.89;100.00;97457.09;5054385;28;19916;-61
2022/04/10 04:34:00;;;;;;;;;;;1.80;99.90;;;1.04;100.00;97466.63;5057309;28;19924;-61
2022/04/10 04:36:26;;;;;;;;;;;1.90;99.90;;;1.08;100.00;97465.78;5053434;28;19956;-61
2022/04/10 04:38:53;;;;;;;;;;;1.90;99.90;;;1.12;100.00;97467.53;5058270;28;19962;-61
2022/04/10 04:41:18;;;;;;;;;;;2.00;99.90;;;1.15;100.00;97480.53;5054130;28;19916;-61
2022/04/10 04:43:44;;;;;;;;;;;2.00;99.90;;;1.30;100.00;97471.88;5053617;28;19924;-61
2022/04/10 04:46:10;;;;;;;;;;;2.10;99.90;;;1.32;100.00;97473.59;5054607;28;19921;-61
2022/04/10 04:48:35;;;;;;;;;;;2.20;99.90;;;1.40;100.00;97483.13;5055056;28;19917;-60
2022/04/10 04:51:02;;;;;;;;;;;2.30;99.90;;;1.42;100.00;97471.00;5054313;28;20310;-61
2022/04/10 04:53:28;;;;;;;;;;;2.30;99.90;;;1.47;100.00;97479.66;5055274;28;19962;-61
2022/04/10 04:55:54;;;;;;;;;;;2.30;99.90;;;1.50;100.00;97482.28;5052916;28;19917;-61
2022/04/10 04:58:19;;;;;;;;;;;2.40;99.90;;;1.51;100.00;97481.41;5055724;28;20418;-61
2022/04/10 05:00:46;;;;;;;;;;;2.40;99.90;;;1.51;100.00;97481.41;5057131;28;20026;-61
2022/04/10 05:03:11;;;;;;;;;;;2.40;99.90;;;1.53;100.00;97484.88;5053896;28;20352;-61
2022/04/10 05:05:37;;;;;;;;;;;2.40;99.90;;;1.57;100.00;97491.81;5055361;28;19970;-61
2022/04/10 05:08:04;;;;;;;;;;;2.40;99.90;;;1.63;100.00;97490.94;5054348;28;20025;-61
2022/04/10 05:10:29;;;;;;;;;;;2.50;99.90;;;1.73;100.00;97499.63;5052548;28;19928;-61
2022/04/10 05:12:55;;;;;;;;;;;2.60;99.90;;;1.79;100.00;97502.19;5046970;28;20171;-61
2022/04/10 05:15:21;;;;;;;;;;;2.60;99.90;;;1.83;100.00;97506.53;5054852;28;19952;-61
2022/04/10 05:17:46;;;;;;;;;;;2.70;99.90;;;1.79;100.00;97504.78;5055553;28;20555;-61
2022/04/10 05:20:12;;;;;;;;;;;2.60;99.90;;;1.82;100.00;97517.81;5052005;28;19924;-61
2022/04/10 05:22:38;;;;;;;;;;;2.60;99.90;;;1.85;100.00;97520.41;5050565;28;19994;-61
2022/04/10 05:25:04;;;;;;;;;;;2.70;99.90;;;1.95;100.00;97523.88;5053604;28;22249;-61
2022/04/10 05:27:30;;;;;;;;;;;2.80;99.90;;;2.02;100.00;97526.44;5053938;28;20014;-60
2022/04/10 05:29:55;;;;;;;;;;;2.80;99.90;;;2.04;100.00;97523.84;5053343;28;19939;-60
2022/04/10 05:32:21;;;;;;;;;;;2.90;99.90;;;2.10;100.00;97535.13;5055448;28;19920;-61
2022/04/10 05:34:47;;;;;;;;;;;2.90;99.90;;;2.16;100.00;97534.25;5050731;28;19931;-61
2022/04/10 05:37:12;;;;;;;;;;;3.00;99.90;;;2.19;100.00;97530.75;5052823;28;19957;-61
2022/04/10 05:39:39;;;;;;;;;;;3.00;99.90;;;2.20;100.00;97541.16;5054036;28;19921;-61
2022/04/10 05:42:07;;;;;;;;;;;3.00;99.90;;;2.24;100.00;97542.03;5055756;28;19934;-61
2022/04/10 05:44:33;;;;;;;;;;;3.00;99.90;;;2.32;100.00;97549.84;5054244;28;19934;-61
2022/04/10 05:47:01;;;;;;;;;;;3.10;99.90;;;2.34;100.00;97545.50;5053407;28;21265;-61
2022/04/10 05:49:27;;;;;;;;;;;3.10;99.90;;;2.37;100.00;97550.69;5051758;28;19928;-60
2022/04/10 05:51:52;;;;;;;;;;;3.10;99.90;;;2.35;100.00;97552.41;5052488;28;19936;-61
2022/04/10 05:54:18;;;;;;;;;;;3.10;99.90;;;2.31;99.29;97567.19;5055118;28;20422;-61
2022/04/10 05:56:44;;;;;;;;;;;3.10;99.90;;;2.25;100.00;97562.00;5056287;28;19928;-61
2022/04/10 05:59:09;;;;;;;;;;;3.10;99.90;;;2.12;100.00;97544.66;5054506;28;19975;-61
2022/04/10 06:01:35;;;;;;;;;;;3.10;99.90;;;2.34;100.00;97566.31;5055359;28;20288;-61
2022/04/10 06:04:01;;;;;;;;;;;3.10;99.90;;;2.49;99.69;97568.88;5062387;22;19979;-59
2022/04/10 06:06:26;;;;;;;;;;;3.30;99.90;;;2.73;99.64;97567.06;5032248;28;20066;-58
2022/04/10 06:08:52;;;;;;;;;;;3.50;99.90;;;3.04;95.80;97573.06;5030887;28;19920;-58
2022/04/10 06:11:17;;;;;;;;;;;3.80;99.90;;;3.24;93.96;97562.53;5033616;28;19917;-59
2022/04/10 06:13:43;;;;;;;;;;;4.00;99.90;;;3.43;91.27;97574.59;5028355;28;20252;-58
2022/04/10 06:16:09;;;;;;;;;;;4.20;99.90;;;3.59;90.79;97572.75;5013713;28;19931;-58
2022/04/10 06:18:34;;;;;;;;;;;4.40;99.90;;;3.67;91.52;97575.31;5015087;28;19921;-59
2022/04/10 06:21:00;;;;;;;;;;;4.40;99.90;;;3.77;89.83;97573.53;5011530;28;20027;-59
2022/04/10 06:23:25;;;;;;;;;;;4.60;99.90;;;3.85;91.19;97583.91;5013878;28;19921;-58
2022/04/10 06:25:52;;;;;;;;;;;4.70;99.90;;;3.94;91.89;97579.47;5011067;28;19944;-58
2022/04/10 06:28:17;;;;;;;;;;;4.70;99.90;;;4.04;92.72;97582.00;5013156;28;20392;-58
2022/04/10 06:30:45;;;;;;;;;;;4.80;99.90;;;4.15;91.26;97588.88;5012580;28;19929;-58
2022/04/10 06:33:14;;;;;;;;;;;4.90;99.90;;;4.29;92.55;97588.75;5015809;28;19917;-58
2022/04/10 06:35:39;;;;;;;;;;;5.00;99.90;;;4.38;90.41;97588.69;5015102;28;21392;-59
2022/04/10 06:38:06;;;;;;;;;;;5.10;99.90;;;4.52;89.58;97592.88;5015221;28;19925;-58
2022/04/10 06:40:31;;;;;;;;;;;5.30;99.90;;;4.62;88.93;97594.53;5013190;28;20028;-58
2022/04/10 06:42:57;;;;;;;;;;;5.40;99.90;;;4.64;84.12;97592.75;5015524;28;20181;-58
2022/04/10 06:45:22;;;;;;;;;;;5.40;99.90;;;4.73;87.39;97587.44;5011969;28;20380;-58
2022/04/10 06:47:48;;;;;;;;;;;5.50;99.90;;;4.77;84.12;97588.28;5012699;28;19922;-59
2022/04/10 06:50:14;;;;;;;;;;;5.60;99.90;;;4.71;85.31;97575.28;5013315;28;20588;-58
2022/04/10 06:52:40;;;;;;;;;;;5.70;99.90;;;5.06;84.36;97598.41;5014075;28;19955;-58
2022/04/10 06:55:05;;;;;;;;;;;5.70;99.90;;;5.19;80.84;97604.38;5013986;28;19928;-58
2022/04/10 06:57:31;;;;;;;;;;;5.80;99.90;;;5.31;80.03;97604.22;5013992;28;20368;-58
2022/04/10 06:59:57;;;;;;;;;;;6.00;99.90;;;5.22;80.07;97601.69;5014375;28;19921;-58
2022/04/10 07:02:22;;;;;;;;;;;6.10;99.90;;;5.30;79.48;97599.00;5009616;28;19965;-58
2022/04/10 07:04:49;;;;;;;;;;;6.10;99.90;;;5.49;80.08;97610.06;5011447;28;19921;-58
2022/04/10 07:07:14;;;;;;;;;;;6.20;99.90;;;5.66;78.53;97609.84;5012976;28;19925;-58
2022/04/10 07:09:40;;;;;;;;;;;6.30;99.90;;;5.72;77.53;97615.88;5011964;28;19932;-58
2022/04/10 07:12:06;;;;;;;;;;;6.50;99.90;;;5.63;74.91;97615.97;5012422;28;20386;-58
2022/04/10 07:14:31;;;;;;;;;;;6.40;99.90;;;5.73;76.53;97607.13;5013583;28;19917;-58
2022/04/10 07:16:57;;;;;;;;;;;6.50;99.90;;;5.89;76.11;97610.38;5013262;28;19921;-58
2022/04/10 07:19:23;;;;;;;;;;;6.60;99.90;;;6.09;75.20;97615.34;5013815;28;19925;-58
2022/04/10 07:24:32;;;;;;;;;;;6.90;99.90;;;6.33;74.26;97618.44;5014119;28;19972;-58
2022/04/10 07:26:58;;;;;;;;;;;7.00;99.90;;;6.38;75.54;97611.38;5013079;28;19975;-58
2022/04/10 07:29:24;;;;;;;;;;;7.10;99.90;;;6.45;74.27;97610.38;5012912;28;19975;-59
2022/04/10 07:31:49;;;;;;;;;;;7.20;99.90;;;6.39;71.79;97617.47;5012247;28;20320;-59
2022/04/10 07:34:15;;;;;;;;;;;7.20;99.90;;;6.47;72.45;97624.31;5010928;28;19925;-58
2022/04/10 07:36:41;;;;;;;;;;;7.20;99.90;;;6.62;74.09;97615.34;5012025;28;19964;-58
2022/04/10 07:39:06;;;;;;;;;;;7.40;99.90;;;6.85;72.40;97620.16;5012946;28;19925;-58
2022/04/10 07:41:32;;;;;;;;;;;7.50;99.90;;;7.05;70.90;97627.66;5011762;28;20381;-58
2022/04/10 07:43:57;;;;;;;;;;;7.70;99.90;;;7.29;69.73;97628.06;5007431;28;19932;-59
2022/04/10 07:49:07;;;;;;;;;;;8.00;99.90;;;7.32;67.72;97625.41;5010331;28;20013;-58
2022/04/10 07:51:34;;;;;;;;;;;8.10;99.90;;;7.43;64.80;97630.44;5010548;28;19921;-58
2022/04/10 07:53:59;;;;;;;;;;;8.10;99.90;;;7.38;63.84;97637.53;5013832;28;20020;-58
2022/04/10 07:56:25;;;;;;;;;;;8.10;99.90;;;7.37;68.84;97638.41;5008794;28;20384;-58
2022/04/10 07:58:51;;;;;;;;;;;8.20;99.90;;;7.49;65.16;97632.91;5010494;28;19925;-59
2022/04/10 08:01:16;;;;;;;;;;;8.20;99.90;;;7.58;64.28;97643.22;5014633;28;19928;-58
2022/04/10 08:03:42;;;;;;;;;;;8.20;99.90;;;7.68;66.33;97635.13;5016042;28;19917;-58
2022/04/10 08:06:07;;;;;;;;;;;8.30;99.90;;;7.68;61.64;97635.13;5012797;28;20028;-59
2022/04/10 08:08:33;;;;;;;;;;;8.40;99.90;;;7.87;63.54;97648.75;5006359;28;20356;-58
2022/04/10 08:10:59;;;;;;;;;;;8.60;99.90;;;8.03;64.10;97650.13;5013328;28;19936;-57
2022/04/10 08:13:24;;;;;;;;;;;8.60;99.90;;;8.17;60.16;97657.69;5015604;28;19932;-56
2022/04/10 08:15:50;;;;;;;;;;;8.80;99.90;;;8.16;60.62;97650.69;5018000;28;19917;-57
2022/04/10 08:18:16;;;;;;;;;;;8.90;99.90;;;8.03;60.38;97656.22;5019031;28;19921;-58
2022/04/10 08:20:42;;;;;;;;;;;8.90;99.90;;;8.05;59.33;97657.97;5013285;28;19925;-57
2022/04/10 08:23:08;;;;;;;;;;;8.90;99.90;;;7.92;59.81;97657.38;5018542;28;19932;-57
2022/04/10 08:25:34;;;;;;;;;;;8.80;99.90;;;7.89;60.61;97649.56;5015548;28;19917;-58
2022/04/10 08:28:00;;;;;;;;;;;8.80;99.90;;;7.89;60.44;97652.19;5017349;28;19952;-57
2022/04/10 08:30:26;;;;;;;;;;;8.70;99.90;;;8.02;62.75;97670.28;5016165;28;19929;-57
2022/04/10 08:32:52;;;;;;;;;;;8.80;99.90;;;8.08;61.33;97661.38;5015643;28;19925;-57
2022/04/10 08:35:18;;;;;;;;;;;8.90;99.90;;;8.02;60.93;97672.00;5017497;28;20418;-56
2022/04/10 08:37:44;;;;;;;;;;;8.90;99.90;;;8.30;60.67;97669.63;5014544;28;19921;-57
2022/04/10 08:40:10;;;;;;;;;;;9.10;99.90;;;8.44;60.22;97671.13;5012714;28;19917;-57
2022/04/10 08:42:36;;;;;;;;;;;9.20;99.90;;;8.67;60.43;97673.16;5017803;28;19941;-57
2022/04/10 08:45:02;;;;;;;;;;;9.30;99.90;;;8.58;58.98;97666.38;5017125;28;20361;-57
2022/04/10 08:47:29;;;;;;;;;;;9.30;99.90;;;8.50;57.58;97679.69;5014373;28;19971;-57
2022/04/10 08:49:55;;;;;;;;;;;9.40;99.90;;;8.36;57.60;97674.75;5014115;28;19964;-57
2022/04/10 08:52:21;;;;;;;;;;;9.30;99.90;;;8.35;58.72;97680.03;5016822;28;20016;-57
2022/04/10 08:54:48;;;;;;;;;;;9.20;99.90;;;8.32;56.96;97674.84;5017243;28;19925;-57
2022/04/10 08:57:14;;;;;;;;;;;9.20;99.90;;;8.08;56.42;97684.16;5018553;28;19921;-57
2022/04/10 08:59:40;;;;;;;;;;;9.10;99.90;;;8.29;58.49;97688.94;5016457;28;21330;-57
2022/04/10 09:02:06;;;;;;;;;;;9.10;99.90;;;8.43;57.07;97682.50;5009891;28;20036;-57
2022/04/10 09:04:32;;;;;;;;;;;9.20;99.90;;;8.44;55.24;97682.47;5007716;28;20196;-57
2022/04/10 09:06:58;;;;;;;;;;;9.30;99.90;;;8.47;53.70;97686.78;5010822;28;20356;-57
2022/04/10 09:09:24;;;;;;;;;;;9.40;99.90;;;8.56;54.01;97679.56;5012450;28;19972;-57
2022/04/10 09:11:53;;;;;;;;;;;9.30;99.90;;;8.66;54.50;97681.97;5017271;28;19976;-57
2022/04/10 09:14:26;;;;;;;;;;;9.40;99.90;;;8.52;55.10;97670.00;5017975;28;19953;-57
2022/04/10 09:17:17;;;;;;;;;;;9.30;99.90;;;8.36;53.48;97681.75;5013260;28;20035;-57
2022/04/10 09:19:43;;;;;;;;;;;9.30;99.50;;;8.23;55.90;97682.03;5011655;28;19925;-56
2022/04/10 09:22:38;;;;;;;;;;;9.20;99.90;;;8.21;56.30;97681.22;5014039;28;20674;-56
2022/04/10 09:25:05;;;;;;;;;;;9.10;99.90;;;8.07;54.60;97683.28;5000371;28;20694;-56
2022/04/10 09:27:32;;;;;;;;;;;8.90;99.90;;;7.90;55.51;97674.94;5016279;28;19921;-57
2022/04/10 09:29:58;;;;;;;;;;;8.80;99.90;;;7.70;57.55;97677.97;5014731;28;19928;-57
2022/04/10 09:32:37;;;;;;;;;;;8.60;99.90;;;7.73;58.36;97684.00;5006397;28;21709;-56
2022/04/10 09:35:04;;;;;;;;;;;8.50;99.90;;;7.65;57.34;97683.34;5011710;28;20434;-57
2022/04/10 09:37:32;;;;;;;;;;;8.40;99.90;;;7.39;58.46;97662.84;5008965;28;19920;-56
2022/04/10 09:40:29;;;;;;;;;;;8.30;99.90;;;7.38;58.79;97685.63;5016210;28;19920;-56
2022/04/10 09:43:09;;;;;;;;;;;8.10;99.90;;;7.20;59.79;97691.22;5009637;28;19956;-56
2022/04/10 09:45:43;;;;;;;;;;;8.00;99.90;;;7.42;57.32;97683.78;5016342;28;19925;-56
2022/04/10 09:51:11;;;;;;;;;;;8.30;99.90;;;7.70;54.90;97668.34;5009786;28;20492;-58
2022/04/10 09:53:37;;;;;;;;;;;8.50;99.90;;;8.27;50.16;97660.94;5016461;28;20629;-57
2022/04/10 09:56:04;;;;;;;;;;;8.90;98.00;;;8.28;50.12;97652.19;5010761;28;19964;-57
2022/04/10 09:58:31;;;;;;;;;;;9.20;97.20;;;8.62;51.73;97681.19;5013815;28;19924;-57
2022/04/10 10:00:58;;;;;;;;;;;9.40;97.50;;;8.59;49.16;97682.09;5010302;28;19917;-57
2022/04/10 10:03:25;;;;;;;;;;;9.40;97.10;;;8.55;49.50;97679.59;5004947;28;19917;-57
2022/04/10 10:05:52;;;;;;;;;;;9.30;96.10;;;8.28;51.15;97670.56;5012240;28;20031;-57
2022/04/10 10:08:18;;;;;;;;;;;9.20;97.10;;;8.18;50.76;97667.28;5013720;28;19918;-57
2022/04/10 10:10:44;;;;;;;;;;;9.20;96.80;;;8.39;50.36;97676.44;5015676;28;20011;-57
2022/04/10 10:13:12;;;;;;;;;;;9.20;96.50;;;8.40;51.26;97671.16;5014025;28;19928;-57
2022/04/10 10:15:38;;;;;;;;;;;9.30;96.60;;;8.69;51.06;97674.00;5008731;28;20016;-57
2022/04/10 10:18:06;;;;;;;;;;;9.40;96.50;;;8.97;50.01;97677.66;5012984;28;20413;-57
2022/04/10 10:20:32;;;;;;;;;;;9.70;96.40;;;8.94;48.16;97677.72;5016855;28;20020;-56
2022/04/10 10:23:03;;;;;;;;;;;9.80;94.10;;;8.61;47.52;97666.28;5014321;28;20075;-56
2022/04/10 10:25:58;;;;;;;;;;;9.60;93.40;;;8.43;52.10;97667.59;5016025;28;19952;-57
2022/04/10 10:28:32;;;;;;;;;;;9.30;96.40;;;8.11;53.64;97674.47;5010957;28;19972;-57
2022/04/10 10:31:17;;;;;;;;;;;9.00;97.10;;;7.88;57.56;97680.22;5008280;28;20854;-57
2022/04/10 10:33:51;;;;;;;;;;;8.80;99.20;;;7.55;60.07;97664.25;5003852;28;19925;-56
2022/04/10 10:36:26;;;;;;;;;;;8.60;99.90;;;7.55;61.71;97663.41;4994455;28;20012;-56
2022/04/10 10:38:53;;;;;;;;;;;8.50;99.90;;;7.74;63.99;97675.25;5001512;28;19925;-56
2022/04/10 10:41:19;;;;;;;;;;;8.50;99.90;;;7.98;60.59;97681.72;5004391;28;19920;-55
2022/04/10 10:43:45;;;;;;;;;;;8.60;99.90;;;7.53;63.13;97679.19;5005408;28;20842;-55
2022/04/10 10:46:22;;;;;;;;;;;8.50;99.90;;;7.38;66.41;97690.00;4995836;28;20344;-55
2022/04/10 10:48:50;;;;;;;;;;;8.30;99.90;;;7.26;64.38;97681.44;5003357;28;19925;-55
2022/04/10 10:51:16;;;;;;;;;;;8.30;99.90;;;7.35;62.55;97688.28;5005811;28;19929;-54
2022/04/10 10:53:55;;;;;;;;;;;8.30;99.90;;;7.50;63.38;97678.38;5012114;28;19987;-55
2022/04/10 10:56:26;;;;;;;;;;;8.40;99.90;;;7.50;64.88;97683.63;5011113;28;19947;-56
2022/04/10 10:58:54;;;;;;;;;;;8.50;99.90;;;7.63;66.92;97667.59;5013376;28;20354;-56
2022/04/10 11:01:25;;;;;;;;;;;8.60;99.90;;;7.52;62.94;97672.22;5010618;28;19925;-57
2022/04/10 11:04:05;;;;;;;;;;;8.50;99.90;;;7.53;63.22;97686.19;5013427;28;20274;-56
2022/04/10 11:06:44;;;;;;;;;;;8.40;99.90;;;7.28;60.81;97657.81;5012143;28;19925;-56
2022/04/10 11:09:22;;;;;;;;;;;8.40;99.90;;;7.62;61.36;97686.00;5012641;28;19917;-57
2022/04/10 11:11:49;;;;;;;;;;;8.50;99.90;;;7.92;58.33;97670.50;5006371;28;19917;-56
2022/04/10 11:14:32;;;;;;;;;;;8.70;99.90;;;7.95;56.32;97678.31;5007671;28;19983;-56
2022/04/10 11:17:28;;;;;;;;;;;8.90;99.90;;;7.94;53.97;97684.47;5009824;28;20020;-57
2022/04/10 11:19:57;;;;;;;;;;;8.90;99.30;;;7.84;54.28;97676.78;5010962;28;19924;-56
2022/04/10 11:22:23;;;;;;;;;;;8.80;98.70;;;7.91;54.17;97679.28;5012238;28;19940;-56
2022/04/10 11:24:51;;;;;;;;;;;8.70;98.10;;;7.82;54.63;97682.97;5006652;28;19921;-56
2022/04/10 11:27:55;;;;;;;;;;;8.70;97.90;;;7.71;54.94;97672.69;5009034;28;19925;-56
2022/04/10 11:30:27;;;;;;;;;;;8.60;98.10;;;7.79;55.98;97673.41;5010638;28;20949;-56
2022/04/10 11:32:55;;;;;;;;;;;8.50;98.90;;;7.61;56.67;97647.56;4995792;28;19960;-56
2022/04/10 11:35:42;;;;;;;;;;;8.60;99.20;;;7.86;55.67;97668.00;5002786;28;19921;-56
2022/04/10 11:38:18;;;;;;;;;;;8.60;99.40;;;7.97;53.95;97664.25;5009252;28;20637;-56